createdAt,value
2023-04-15T00:00:01.875Z,84.75
2023-04-15T00:01:01.759Z,84.85
2023-04-15T00:02:02.063Z,84.95
2023-04-15T00:03:01.988Z,84.55
2023-04-15T00:04:02.056Z,83.85
2023-04-15T00:05:01.810Z,83.95
2023-04-15T00:06:01.714Z,84.45
2023-04-15T00:07:01.711Z,84.99
2023-04-15T00:08:01.714Z,85.15
2023-04-15T00:09:02.461Z,85.15
2023-04-15T00:10:01.741Z,84.95
2023-04-15T00:11:01.750Z,84.85
2023-04-15T00:12:01.767Z,84.85
2023-04-15T00:13:01.632Z,84.95
2023-04-15T00:14:01.667Z,85.15
2023-04-15T00:15:01.652Z,85.45
2023-04-15T00:16:02.403Z,85.45
2023-04-15T00:17:01.766Z,85.55
2023-04-15T00:18:01.596Z,85.55
2023-04-15T00:19:01.839Z,85.45
2023-04-15T00:20:01.581Z,85.05
2023-04-15T00:21:02.267Z,83.95
2023-04-15T00:22:01.620Z,84.25
2023-04-15T00:23:01.500Z,84.75
2023-04-15T00:24:01.534Z,85.05
2023-04-15T00:25:01.531Z,85.05
2023-04-15T00:26:01.532Z,84.65
2023-04-15T00:27:01.743Z,84.45
2023-04-15T00:28:01.588Z,84.55
2023-04-15T00:29:01.741Z,83.45
2023-04-15T00:30:01.488Z,83.89
2023-04-15T00:31:01.526Z,84.39
2023-04-15T00:32:01.460Z,84.69
2023-04-15T00:33:03.212Z,85.19
2023-04-15T00:34:01.495Z,84.89
2023-04-15T00:35:01.400Z,84.99
2023-04-15T00:36:01.512Z,84.79
2023-04-15T00:37:01.387Z,84.29
2023-04-15T00:38:01.419Z,84.39
2023-04-15T00:39:01.910Z,83.89
2023-04-15T00:40:01.455Z,83.49
2023-04-15T00:41:01.342Z,83.63
2023-04-15T00:42:01.364Z,84.43
2023-04-15T00:43:01.406Z,84.13
2023-04-15T00:44:01.380Z,84.53
2023-04-15T00:45:01.660Z,85.03
2023-04-15T00:46:01.439Z,85.13
2023-04-15T00:47:01.366Z,85.63
2023-04-15T00:48:01.341Z,85.39
2023-04-15T00:49:01.468Z,85.19
2023-04-15T00:50:01.914Z,84.63
2023-04-15T00:51:01.720Z,84.93
2023-04-15T00:52:01.224Z,85.19
2023-04-15T00:53:01.242Z,85.29
2023-04-15T00:54:01.222Z,85.29
2023-04-15T00:55:01.324Z,84.89
2023-04-15T00:56:01.225Z,83.19
2023-04-15T00:57:01.834Z,83.33
2023-04-15T00:58:01.167Z,84.03
2023-04-15T00:59:01.446Z,84.73
2023-04-15T01:00:01.166Z,85.03
2023-04-15T01:01:01.166Z,84.33
2023-04-15T01:02:01.352Z,84.53
2023-04-15T01:03:01.254Z,84.43
2023-04-15T01:04:01.272Z,84.43
2023-04-15T01:05:01.089Z,85.03
2023-04-15T01:06:03.732Z,85.53
2023-04-15T01:07:01.106Z,84.53
2023-04-15T01:08:01.116Z,84.93
2023-04-15T01:09:01.264Z,85.33
2023-04-15T01:10:01.140Z,85.33
2023-04-15T01:11:01.033Z,85.43
2023-04-15T01:12:01.038Z,85.53
2023-04-15T01:13:01.900Z,85.53
2023-04-15T01:14:01.029Z,85.53
2023-04-15T01:15:01.273Z,85.43
2023-04-15T01:16:01.207Z,85.19
2023-04-15T01:17:01.069Z,85.19
2023-04-15T01:18:01.316Z,85.09
2023-04-15T01:19:01.240Z,84.89
2023-04-15T01:20:00.982Z,84.29
2023-04-15T01:21:02.736Z,84.49
2023-04-15T01:22:00.982Z,84.69
2023-04-15T01:23:00.886Z,84.79
2023-04-15T01:24:00.918Z,84.79
2023-04-15T01:25:00.922Z,84.69
2023-04-15T01:26:00.916Z,84.69
2023-04-15T01:27:00.916Z,84.59
2023-04-15T01:28:00.844Z,84.59
2023-04-15T01:29:01.081Z,84.49
2023-04-15T01:30:00.895Z,84.39
2023-04-15T01:31:01.295Z,84.39
2023-04-15T01:32:00.857Z,84.25
2023-04-15T01:33:00.908Z,84.15
2023-04-15T01:34:00.774Z,83.95
2023-04-15T01:35:00.779Z,83.25
2023-04-15T01:36:00.775Z,83.55
2023-04-15T01:37:00.782Z,83.59
2023-04-15T01:38:00.739Z,82.09
2023-04-15T01:39:00.934Z,82.09
2023-04-15T01:40:00.756Z,82.09
2023-04-15T01:41:00.710Z,82.33
2023-04-15T01:42:00.731Z,82.73
2023-04-15T01:43:00.720Z,82.93
2023-04-15T01:44:00.720Z,83.03
2023-04-15T01:45:01.390Z,83.43
2023-04-15T01:46:00.750Z,83.93
2023-04-15T01:47:00.796Z,83.33
2023-04-15T01:48:00.727Z,83.33
2023-04-15T01:49:00.908Z,83.43
2023-04-15T01:50:00.619Z,84.13
2023-04-15T01:51:00.632Z,84.53
2023-04-15T01:52:00.640Z,84.73
2023-04-15T01:53:00.594Z,84.93
2023-04-15T01:54:01.381Z,84.73
2023-04-15T01:55:00.612Z,84.73
2023-04-15T01:56:00.563Z,84.83
2023-04-15T01:57:02.098Z,84.63
2023-04-15T01:58:00.572Z,83.63
2023-04-15T01:59:00.754Z,83.53
2023-04-15T02:00:00.582Z,84.13
2023-04-15T02:01:00.678Z,83.53
2023-04-15T02:02:00.546Z,83.33
2023-04-15T02:03:00.631Z,83.53
2023-04-15T02:04:00.641Z,83.73
2023-04-15T02:05:00.838Z,83.73
2023-04-15T02:06:00.421Z,84.43
2023-04-15T02:07:00.433Z,84.83
2023-04-15T02:08:00.443Z,84.93
2023-04-15T02:09:00.650Z,83.93
2023-04-15T02:10:00.347Z,84.03
2023-04-15T02:11:00.347Z,83.53
2023-04-15T02:12:00.472Z,83.73
2023-04-15T02:13:00.392Z,84.23
2023-04-15T02:14:00.328Z,84.03
2023-04-15T02:15:00.418Z,84.33
2023-04-15T02:16:00.281Z,84.73
2023-04-15T02:17:00.415Z,84.73
2023-04-15T02:18:00.285Z,84.63
2023-04-15T02:19:00.583Z,84.23
2023-04-15T02:20:00.284Z,84.73
2023-04-15T02:21:00.286Z,85.33
2023-04-15T02:22:00.219Z,85.03
2023-04-15T02:23:00.220Z,85.43
2023-04-15T02:24:00.449Z,85.43
2023-04-15T02:25:00.192Z,85.23
2023-04-15T02:26:00.203Z,85.13
2023-04-15T02:27:00.211Z,84.63
2023-04-15T02:28:00.225Z,84.83
2023-04-15T02:29:00.464Z,85.33
2023-04-15T02:30:00.150Z,85.33
2023-04-15T02:31:00.146Z,85.03
2023-04-15T02:32:00.259Z,85.23
2023-04-15T02:33:00.167Z,85.53
2023-04-15T02:34:00.142Z,85.53
2023-04-15T02:35:00.137Z,85.53
2023-04-15T02:36:00.134Z,85.33
2023-04-15T02:37:00.123Z,85.19
2023-04-15T02:38:00.398Z,85.29
2023-04-15T02:39:00.287Z,85.19
2023-04-15T02:40:00.049Z,85.29
2023-04-15T02:41:00.053Z,84.99
2023-04-15T02:41:59.966Z,85.09
2023-04-15T02:43:00.026Z,84.79
2023-04-15T02:44:00.076Z,84.09
2023-04-15T02:44:59.980Z,84.59
2023-04-15T02:46:00.086Z,84.79
2023-04-15T02:47:00.126Z,84.79
2023-04-15T02:47:59.948Z,85.19
2023-04-15T02:49:00.415Z,84.59
2023-04-15T02:49:59.962Z,84.53
2023-04-15T02:50:59.915Z,84.63
2023-04-15T02:52:00.055Z,85.13
2023-04-15T02:52:59.921Z,85.33
2023-04-15T02:53:59.942Z,85.53
2023-04-15T02:54:59.929Z,85.33
2023-04-15T02:56:08.296Z,85.23
2023-04-15T02:56:59.844Z,84.63
2023-04-15T02:57:59.853Z,85.13
2023-04-15T02:59:00.196Z,85.13
2023-04-15T02:59:59.873Z,85.63
2023-04-15T03:01:00.514Z,85.73
2023-04-15T03:01:59.788Z,85.73
2023-04-15T03:02:59.947Z,85.63
2023-04-15T03:03:59.857Z,85.63
2023-04-15T03:04:59.832Z,85.29
2023-04-15T03:05:59.798Z,85.23
2023-04-15T03:06:59.818Z,85.29
2023-04-15T03:07:59.729Z,85.39
2023-04-15T03:08:59.803Z,85.29
2023-04-15T03:09:59.714Z,85.29
2023-04-15T03:10:59.736Z,85.29
2023-04-15T03:12:00.443Z,85.19
2023-04-15T03:12:59.753Z,85.09
2023-04-15T03:13:59.714Z,85.09
2023-04-15T03:14:59.654Z,84.59
2023-04-15T03:16:00.810Z,84.49
2023-04-15T03:16:59.677Z,84.69
2023-04-15T03:17:59.792Z,84.29
2023-04-15T03:18:59.892Z,84.49
2023-04-15T03:19:59.621Z,84.69
2023-04-15T03:20:59.561Z,84.69
2023-04-15T03:21:59.629Z,84.59
2023-04-15T03:22:59.549Z,84.59
2023-04-15T03:23:59.550Z,84.39
2023-04-15T03:24:59.613Z,84.39
2023-04-15T03:25:59.768Z,84.29
2023-04-15T03:26:59.522Z,84.19
2023-04-15T03:27:59.641Z,84.19
2023-04-15T03:28:59.867Z,84.39
2023-04-15T03:29:59.497Z,84.39
2023-04-15T03:30:59.619Z,83.89
2023-04-15T03:31:59.533Z,84.29
2023-04-15T03:32:59.503Z,84.29
2023-04-15T03:33:59.464Z,84.39
2023-04-15T03:34:59.485Z,84.49
2023-04-15T03:35:59.496Z,84.49
2023-04-15T03:36:59.423Z,84.49
2023-04-15T03:37:59.408Z,84.79
2023-04-15T03:38:59.615Z,84.49
2023-04-15T03:39:59.421Z,84.69
2023-04-15T03:40:59.420Z,84.79
2023-04-15T03:41:59.940Z,84.79
2023-04-15T03:42:59.344Z,84.89
2023-04-15T03:43:59.373Z,84.79
2023-04-15T03:44:59.342Z,84.89
2023-04-15T03:46:01.758Z,84.89
2023-04-15T03:46:59.356Z,84.49
2023-04-15T03:48:11.516Z,84.59
2023-04-15T03:48:59.483Z,84.49
2023-04-15T03:49:59.278Z,84.79
2023-04-15T03:50:59.326Z,84.89
2023-04-15T03:51:59.282Z,84.89
2023-04-15T03:52:59.291Z,84.69
2023-04-15T03:53:59.215Z,84.79
2023-04-15T03:54:59.212Z,84.79
2023-04-15T03:55:59.268Z,84.79
2023-04-15T03:56:59.230Z,84.79
2023-04-15T03:57:59.245Z,84.79
2023-04-15T03:58:59.339Z,84.79
2023-04-15T03:59:59.212Z,83.99
2023-04-15T04:00:59.152Z,84.43
2023-04-15T04:01:59.308Z,84.83
2023-04-15T04:02:59.307Z,85.13
2023-04-15T04:03:59.264Z,85.13
2023-04-15T04:04:59.176Z,85.03
2023-04-15T04:05:59.135Z,84.63
2023-04-15T04:06:59.094Z,84.93
2023-04-15T04:07:59.206Z,85.23
2023-04-15T04:08:59.198Z,85.43
2023-04-15T04:09:59.115Z,85.33
2023-04-15T04:10:59.081Z,85.43
2023-04-15T04:11:59.114Z,85.33
2023-04-15T04:12:59.024Z,85.53
2023-04-15T04:13:59.108Z,85.63
2023-04-15T04:14:59.054Z,85.53
2023-04-15T04:15:59.060Z,85.23
2023-04-15T04:16:59.061Z,85.33
2023-04-15T04:17:59.025Z,85.33
2023-04-15T04:18:59.086Z,85.73
2023-04-15T04:19:59.010Z,85.93
2023-04-15T04:20:59.009Z,85.83
2023-04-15T04:21:58.905Z,86.03
2023-04-15T04:22:59.025Z,86.03
2023-04-15T04:23:58.910Z,85.93
2023-04-15T04:24:58.890Z,86.03
2023-04-15T04:25:59.234Z,85.93
2023-04-15T04:26:58.899Z,85.93
2023-04-15T04:27:58.867Z,85.83
2023-04-15T04:28:59.073Z,85.83
2023-04-15T04:29:58.845Z,85.23
2023-04-15T04:30:58.797Z,85.73
2023-04-15T04:31:58.976Z,85.23
2023-04-15T04:32:58.979Z,85.13
2023-04-15T04:33:58.798Z,85.07
2023-04-15T04:34:58.788Z,85.17
2023-04-15T04:35:58.765Z,85.77
2023-04-15T04:36:58.775Z,85.97
2023-04-15T04:37:58.776Z,86.07
2023-04-15T04:38:58.851Z,86.57
2023-04-15T04:39:58.702Z,86.27
2023-04-15T04:40:58.797Z,86.47
2023-04-15T04:41:59.011Z,86.47
2023-04-15T04:42:58.706Z,86.27
2023-04-15T04:43:58.722Z,86.07
2023-04-15T04:44:58.726Z,86.27
2023-04-15T04:45:58.771Z,86.47
2023-04-15T04:46:58.746Z,86.27
2023-04-15T04:47:58.666Z,86.27
2023-04-15T04:48:58.655Z,85.57
2023-04-15T04:49:58.662Z,85.57
2023-04-15T04:50:58.585Z,85.37
2023-04-15T04:51:58.673Z,85.87
2023-04-15T04:52:58.675Z,86.18
2023-04-15T04:53:58.582Z,85.97
2023-04-15T04:54:58.588Z,85.68
2023-04-15T04:55:58.593Z,85.77
2023-04-15T04:56:58.548Z,85.68
2023-04-15T04:57:58.570Z,85.37
2023-04-15T04:59:00.279Z,85.57
2023-04-15T04:59:58.519Z,86.01
2023-04-15T05:00:58.610Z,86.52
2023-04-15T05:01:58.636Z,86.57
2023-04-15T05:02:58.595Z,86.57
2023-04-15T05:03:58.594Z,86.47
2023-04-15T05:04:58.505Z,86.47
2023-04-15T05:05:58.470Z,86.27
2023-04-15T05:06:58.464Z,86.18
2023-04-15T05:07:58.587Z,85.87
2023-04-15T05:08:58.502Z,85.87
2023-04-15T05:09:58.467Z,85.87
2023-04-15T05:10:58.435Z,85.57
2023-04-15T05:11:58.402Z,85.37
2023-04-15T05:12:58.402Z,85.47
2023-04-15T05:13:58.459Z,85.37
2023-04-15T05:14:58.424Z,85.68
2023-04-15T05:15:58.444Z,85.68
2023-04-15T05:16:58.436Z,85.68
2023-04-15T05:17:58.358Z,85.57
2023-04-15T05:18:58.399Z,85.47
2023-04-15T05:19:58.354Z,85.17
2023-04-15T05:20:58.255Z,85.27
2023-04-15T05:21:58.375Z,85.07
2023-04-15T05:22:58.270Z,85.17
2023-04-15T05:23:58.281Z,85.17
2023-04-15T05:24:58.279Z,85.17
2023-04-15T05:25:58.300Z,85.07
2023-04-15T05:26:58.199Z,85.07
2023-04-15T05:27:58.381Z,85.07
2023-04-15T05:28:58.253Z,85.07
2023-04-15T05:29:58.222Z,85.17
2023-04-15T05:30:58.359Z,85.07
2023-04-15T05:31:58.223Z,85.07
2023-04-15T05:32:58.177Z,85.17
2023-04-15T05:33:58.283Z,85.27
2023-04-15T05:34:58.124Z,85.47
2023-04-15T05:35:58.266Z,85.47
2023-04-15T05:36:58.153Z,85.27
2023-04-15T05:37:58.161Z,85.77
2023-04-15T05:38:58.080Z,85.97
2023-04-15T05:39:58.334Z,86.18
2023-04-15T05:40:58.063Z,86.27
2023-04-15T05:41:58.105Z,86.27
2023-04-15T05:42:59.033Z,86.47
2023-04-15T05:43:58.087Z,86.57
2023-04-15T05:44:58.021Z,86.57
2023-04-15T05:45:58.206Z,86.77
2023-04-15T05:46:58.037Z,87.07
2023-04-15T05:47:58.085Z,87.07
2023-04-15T05:48:58.017Z,87.21
2023-04-15T05:49:57.995Z,87.62
2023-04-15T05:50:57.992Z,87.71
2023-04-15T05:51:58.001Z,87.82
2023-04-15T05:52:57.977Z,87.62
2023-04-15T05:53:57.907Z,87.71
2023-04-15T05:54:57.964Z,87.62
2023-04-15T05:55:57.955Z,87.41
2023-04-15T05:56:57.904Z,87.21
2023-04-15T05:57:57.907Z,87.41
2023-04-15T05:58:57.953Z,87.41
2023-04-15T05:59:57.938Z,87.32
2023-04-15T06:00:57.927Z,87.21
2023-04-15T06:01:57.988Z,87.12
2023-04-15T06:02:58.327Z,87.07
2023-04-15T06:03:57.983Z,86.98
2023-04-15T06:04:58.162Z,86.87
2023-04-15T06:05:58.242Z,86.77
2023-04-15T06:06:57.861Z,86.68
2023-04-15T06:07:57.836Z,86.68
2023-04-15T06:08:57.885Z,86.57
2023-04-15T06:09:57.814Z,86.57
2023-04-15T06:10:57.861Z,86.57
2023-04-15T06:11:57.856Z,86.41
2023-04-15T06:12:57.771Z,86.91
2023-04-15T06:13:57.738Z,87.12
2023-04-15T06:14:59.963Z,87.02
2023-04-15T06:15:57.762Z,87.12
2023-04-15T06:16:57.687Z,87.02
2023-04-15T06:17:57.826Z,86.82
2023-04-15T06:18:58.172Z,86.82
2023-04-15T06:19:57.698Z,86.82
2023-04-15T06:20:57.829Z,86.82
2023-04-15T06:21:57.684Z,86.71
2023-04-15T06:22:57.646Z,86.71
2023-04-15T06:23:57.643Z,86.71
2023-04-15T06:24:57.659Z,86.21
2023-04-15T06:25:57.613Z,86.32
2023-04-15T06:26:57.656Z,86.41
2023-04-15T06:27:57.658Z,86.11
2023-04-15T06:28:57.607Z,86.61
2023-04-15T06:29:57.587Z,86.91
2023-04-15T06:30:57.583Z,86.82
2023-04-15T06:31:57.717Z,86.91
2023-04-15T06:32:57.627Z,86.82
2023-04-15T06:33:57.593Z,86.71
2023-04-15T06:34:57.501Z,86.52
2023-04-15T06:35:57.572Z,86.71
2023-04-15T06:36:57.540Z,86.71
2023-04-15T06:37:57.557Z,86.71
2023-04-15T06:38:57.529Z,86.71
2023-04-15T06:39:57.461Z,86.52
2023-04-15T06:40:57.561Z,86.52
2023-04-15T06:41:57.479Z,86.32
2023-04-15T06:42:57.434Z,86.41
2023-04-15T06:43:57.475Z,86.41
2023-04-15T06:44:57.420Z,86.32
2023-04-15T06:45:57.422Z,86.21
2023-04-15T06:46:57.399Z,86.21
2023-04-15T06:47:57.451Z,86.21
2023-04-15T06:48:57.463Z,85.91
2023-04-15T06:49:57.408Z,86.11
2023-04-15T06:50:57.413Z,86.32
2023-04-15T06:51:57.314Z,86.52
2023-04-15T06:52:57.329Z,86.52
2023-04-15T06:53:57.370Z,86.41
2023-04-15T06:54:57.342Z,86.32
2023-04-15T06:55:57.301Z,86.41
2023-04-15T06:56:57.335Z,86.41
2023-04-15T06:57:57.325Z,86.41
2023-04-15T06:58:57.306Z,86.52
2023-04-15T06:59:57.291Z,86.61
2023-04-15T07:00:57.387Z,86.71
2023-04-15T07:01:57.326Z,86.71
2023-04-15T07:02:57.256Z,86.71
2023-04-15T07:03:57.223Z,86.61
2023-04-15T07:04:57.211Z,86.61
2023-04-15T07:05:57.209Z,86.61
2023-04-15T07:06:57.319Z,86.71
2023-04-15T07:07:57.245Z,86.71
2023-04-15T07:08:57.128Z,86.71
2023-04-15T07:09:57.119Z,86.61
2023-04-15T07:10:57.153Z,86.61
2023-04-15T07:11:57.169Z,86.71
2023-04-15T07:12:57.173Z,86.71
2023-04-15T07:13:57.160Z,86.71
2023-04-15T07:14:57.109Z,86.71
2023-04-15T07:15:57.094Z,86.61
2023-04-15T07:16:57.139Z,86.82
2023-04-15T07:17:57.749Z,86.71
2023-04-15T07:18:57.102Z,86.82
2023-04-15T07:19:57.085Z,86.82
2023-04-15T07:20:57.023Z,86.82
2023-04-15T07:21:57.014Z,86.52
2023-04-15T07:22:57.021Z,86.52
2023-04-15T07:23:57.013Z,86.52
2023-04-15T07:24:57.018Z,86.01
2023-04-15T07:25:56.949Z,85.82
2023-04-15T07:26:58.566Z,85.82
2023-04-15T07:27:56.961Z,85.75
2023-04-15T07:28:56.971Z,85.55
2023-04-15T07:29:56.967Z,85.85
2023-04-15T07:30:58.037Z,85.96
2023-04-15T07:31:56.897Z,85.96
2023-04-15T07:32:57.116Z,85.75
2023-04-15T07:33:56.905Z,85.85
2023-04-15T07:34:56.912Z,85.96
2023-04-15T07:35:57.092Z,85.96
2023-04-15T07:37:02.529Z,85.96
2023-04-15T07:37:56.918Z,85.75
2023-04-15T07:38:56.828Z,85.96
2023-04-15T07:39:56.831Z,85.85
2023-04-15T07:40:58.882Z,85.66
2023-04-15T07:41:56.835Z,85.55
2023-04-15T07:42:56.864Z,85.41
2023-04-15T07:43:56.895Z,85.51
2023-04-15T07:44:56.750Z,85.41
2023-04-15T07:45:56.783Z,85.31
2023-04-15T07:46:56.964Z,85.31
2023-04-15T07:47:56.998Z,85.31
2023-04-15T07:48:56.827Z,85.35
2023-04-15T07:49:56.716Z,85.11
2023-04-15T07:50:56.722Z,85.15
2023-04-15T07:51:56.780Z,84.95
2023-04-15T07:52:56.792Z,84.75
2023-04-15T07:53:56.809Z,85.15
2023-04-15T07:54:56.742Z,85.25
2023-04-15T07:55:56.644Z,85.35
2023-04-15T07:56:56.641Z,85.25
2023-04-15T07:57:56.769Z,85.05
2023-04-15T07:58:56.678Z,85.05
2023-04-15T07:59:58.005Z,85.05
2023-04-15T08:00:56.686Z,85.05
2023-04-15T08:01:56.720Z,85.25
2023-04-15T08:02:56.809Z,85.15
2023-04-15T08:03:56.845Z,85.15
2023-04-15T08:04:56.642Z,85.15
2023-04-15T08:05:56.833Z,85.15
2023-04-15T08:06:56.616Z,85.25
2023-04-15T08:07:56.654Z,85.15
2023-04-15T08:08:56.643Z,85.05
2023-04-15T08:09:56.539Z,85.05
2023-04-15T08:10:56.542Z,84.85
2023-04-15T08:11:56.545Z,84.95
2023-04-15T08:12:56.534Z,84.85
2023-04-15T08:13:56.667Z,84.75
2023-04-15T08:14:56.554Z,84.75
2023-04-15T08:15:56.497Z,84.15
2023-04-15T08:16:56.470Z,84.25
2023-04-15T08:17:56.508Z,84.35
2023-04-15T08:18:57.164Z,84.55
2023-04-15T08:19:56.492Z,84.45
2023-04-15T08:20:56.509Z,84.55
2023-04-15T08:21:56.423Z,84.35
2023-04-15T08:22:56.412Z,84.51
2023-04-15T08:23:56.415Z,84.61
2023-04-15T08:24:56.425Z,84.45
2023-04-15T08:25:56.515Z,84.35
2023-04-15T08:26:56.423Z,84.65
2023-04-15T08:27:56.357Z,84.65
2023-04-15T08:28:57.441Z,84.55
2023-04-15T08:29:56.356Z,84.51
2023-04-15T08:30:56.348Z,84.61
2023-04-15T08:31:56.474Z,84.51
2023-04-15T08:32:56.394Z,84.31
2023-04-15T08:33:56.289Z,84.31
2023-04-15T08:34:56.287Z,84.31
2023-04-15T08:35:56.395Z,84.31
2023-04-15T08:36:56.308Z,84.31
2023-04-15T08:37:56.301Z,84.11
2023-04-15T08:38:56.327Z,84.21
2023-04-15T08:39:56.218Z,84.21
2023-04-15T08:40:56.210Z,84.21
2023-04-15T08:41:56.210Z,84.25
2023-04-15T08:42:56.249Z,84.15
2023-04-15T08:43:56.228Z,84.45
2023-04-15T08:44:56.230Z,84.65
2023-04-15T08:45:56.148Z,84.55
2023-04-15T08:46:56.199Z,84.65
2023-04-15T08:47:56.209Z,84.65
2023-04-15T08:48:56.211Z,84.55
2023-04-15T08:49:56.187Z,84.35
2023-04-15T08:50:56.084Z,84.55
2023-04-15T08:51:56.102Z,84.25
2023-04-15T08:52:56.187Z,84.35
2023-04-15T08:53:56.117Z,84.75
2023-04-15T08:54:56.093Z,84.95
2023-04-15T08:55:56.136Z,84.95
2023-04-15T08:56:56.043Z,84.75
2023-04-15T08:57:56.066Z,84.65
2023-04-15T08:58:56.035Z,84.55
2023-04-15T08:59:56.046Z,84.45
2023-04-15T09:00:56.065Z,84.55
2023-04-15T09:01:57.108Z,84.65
2023-04-15T09:02:56.077Z,84.55
2023-04-15T09:03:56.140Z,84.75
2023-04-15T09:04:55.983Z,84.85
2023-04-15T09:05:56.897Z,84.65
2023-04-15T09:06:55.968Z,84.75
2023-04-15T09:07:56.927Z,84.75
2023-04-15T09:08:55.994Z,84.85
2023-04-15T09:09:55.914Z,84.85
2023-04-15T09:10:55.926Z,84.75
2023-04-15T09:11:55.941Z,84.65
2023-04-15T09:12:55.917Z,84.65
2023-04-15T09:13:56.847Z,84.75
2023-04-15T09:14:55.853Z,84.75
2023-04-15T09:15:55.856Z,84.55
2023-04-15T09:16:55.883Z,84.45
2023-04-15T09:17:55.894Z,84.65
2023-04-15T09:18:56.410Z,84.65
2023-04-15T09:19:55.791Z,84.75
2023-04-15T09:20:55.779Z,84.95
2023-04-15T09:21:58.421Z,85.05
2023-04-15T09:22:55.875Z,84.85
2023-04-15T09:23:55.801Z,85.15
2023-04-15T09:24:55.789Z,85.35
2023-04-15T09:25:55.710Z,85.46
2023-04-15T09:26:55.796Z,85.55
2023-04-15T09:27:55.709Z,85.66
2023-04-15T09:28:55.782Z,85.85
2023-04-15T09:29:55.832Z,86.05
2023-04-15T09:30:56.497Z,86.25
2023-04-15T09:31:55.652Z,86.35
2023-04-15T09:32:55.778Z,86.55
2023-04-15T09:33:55.646Z,86.76
2023-04-15T09:34:55.652Z,86.76
2023-04-15T09:35:55.574Z,87.05
2023-04-15T09:36:57.916Z,87.16
2023-04-15T09:38:01.546Z,87.26
2023-04-15T09:38:58.665Z,87.26
2023-04-15T09:39:57.849Z,87.46
2023-04-15T09:40:59.040Z,87.46
2023-04-15T09:41:57.783Z,87.36
2023-04-15T09:42:58.311Z,87.36
2023-04-15T09:44:00.900Z,87.36
2023-04-15T09:44:57.480Z,87.36
2023-04-15T09:45:58.022Z,87.55
2023-04-15T09:46:57.282Z,87.66
2023-04-15T09:47:57.092Z,87.55
2023-04-15T09:49:00.049Z,87.66
2023-04-15T09:49:59.245Z,87.46
2023-04-15T09:50:57.316Z,87.86
2023-04-15T09:52:05.061Z,88.06
2023-04-15T09:53:02.942Z,88.16
2023-04-15T09:53:57.056Z,88.26
2023-04-15T09:55:03.913Z,88.16
2023-04-15T09:55:58.500Z,88.06
2023-04-15T09:56:56.975Z,88.06
2023-04-15T09:57:57.318Z,88.16
2023-04-15T09:58:57.231Z,88.16
2023-04-15T09:59:56.415Z,88.26
2023-04-15T10:00:58.387Z,88.26
2023-04-15T10:02:03.632Z,88.26
2023-04-15T10:02:57.795Z,88.06
2023-04-15T10:03:59.096Z,88.16
2023-04-15T10:05:00.435Z,88.06
2023-04-15T10:05:56.393Z,88.16
2023-04-15T10:07:00.715Z,88.36
2023-04-15T10:07:56.608Z,88.46
2023-04-15T10:08:59.887Z,88.56
2023-04-15T10:09:57.748Z,88.56
2023-04-15T10:11:00.372Z,88.66
2023-04-15T10:11:59.061Z,88.66
2023-04-15T10:13:01.284Z,88.56
2023-04-15T10:13:59.146Z,88.86
2023-04-15T10:14:57.096Z,88.86
2023-04-15T10:16:00.300Z,88.86
2023-04-15T10:16:57.354Z,88.96
2023-04-15T10:17:59.317Z,89.06
2023-04-15T10:18:57.950Z,88.96
2023-04-15T10:19:57.926Z,88.96
2023-04-15T10:20:59.993Z,88.96
2023-04-15T10:21:58.144Z,89.06
2023-04-15T10:22:59.438Z,89.26
2023-04-15T10:23:59.028Z,89.36
2023-04-15T10:24:57.812Z,89.36
2023-04-15T10:25:58.477Z,89.26
2023-04-15T10:26:57.317Z,89.66
2023-04-15T10:27:59.526Z,89.76
2023-04-15T10:28:58.438Z,89.76
2023-04-15T10:29:57.195Z,89.66
2023-04-15T10:30:58.766Z,89.66
2023-04-15T10:31:57.319Z,89.66
2023-04-15T10:32:56.940Z,89.86
2023-04-15T10:33:57.005Z,89.96
2023-04-15T10:34:58.662Z,90.06
2023-04-15T10:35:57.484Z,90.06
2023-04-15T10:37:03.430Z,89.96
2023-04-15T10:37:57.053Z,90.16
2023-04-15T10:39:02.693Z,90.16
2023-04-15T10:40:22.464Z,90.26
2023-04-15T10:40:56.262Z,90.36
2023-04-15T10:42:03.116Z,90.26
2023-04-15T10:43:00.595Z,90.26
2023-04-15T10:43:56.481Z,90.56
2023-04-15T10:44:55.865Z,90.56
2023-04-15T10:45:59.770Z,90.77
2023-04-15T10:46:56.840Z,90.56
2023-04-15T10:47:57.101Z,90.56
2023-04-15T10:48:59.680Z,90.46
2023-04-15T10:49:57.476Z,90.46
2023-04-15T10:50:55.347Z,90.66
2023-04-15T10:51:55.191Z,90.26
2023-04-15T10:52:56.413Z,90.16
2023-04-15T10:53:57.040Z,89.52
2023-04-15T10:54:56.355Z,88.82
2023-04-15T10:55:55.235Z,88.21
2023-04-15T10:56:56.770Z,88.02
2023-04-15T10:57:54.765Z,88.21
2023-04-15T10:58:56.381Z,88.32
2023-04-15T10:59:54.685Z,88.37
2023-04-15T11:00:54.702Z,88.28
2023-04-15T11:01:54.910Z,88.18
2023-04-15T11:02:54.791Z,88.18
2023-04-15T11:03:54.716Z,88.48
2023-04-15T11:04:55.218Z,88.28
2023-04-15T11:05:54.622Z,88.48
2023-04-15T11:06:54.630Z,88.07
2023-04-15T11:07:54.629Z,86.98
2023-04-15T11:08:54.548Z,87.48
2023-04-15T11:09:54.553Z,88.37
2023-04-15T11:10:54.650Z,87.57
2023-04-15T11:11:55.583Z,87.98
2023-04-15T11:12:54.715Z,88.37
2023-04-15T11:13:54.571Z,88.68
2023-04-15T11:14:54.509Z,88.68
2023-04-15T11:15:54.607Z,89.68
2023-04-15T11:16:54.513Z,89.78
2023-04-15T11:17:54.566Z,89.18
2023-04-15T11:18:54.495Z,89.07
2023-04-15T11:19:55.449Z,88.48
2023-04-15T11:20:54.425Z,89.98
2023-04-15T11:21:54.420Z,88.98
2023-04-15T11:23:08.115Z,89.58
2023-04-15T11:23:54.429Z,88.98
2023-04-15T11:24:54.455Z,89.28
2023-04-15T11:25:54.385Z,89.28
2023-04-15T11:26:54.433Z,88.68
2023-04-15T11:27:54.362Z,88.93
2023-04-15T11:28:54.356Z,88.18
2023-04-15T11:29:55.136Z,87.87
2023-04-15T11:30:54.367Z,87.87
2023-04-15T11:31:55.014Z,88.98
2023-04-15T11:32:54.446Z,89.83
2023-04-15T11:33:54.295Z,89.73
2023-04-15T11:34:54.307Z,89.23
2023-04-15T11:35:57.181Z,89.14
2023-04-15T11:36:54.404Z,88.83
2023-04-15T11:37:54.610Z,88.23
2023-04-15T11:38:54.258Z,87.23
2023-04-15T11:40:03.825Z,87.23
2023-04-15T11:40:55.548Z,87.63
2023-04-15T11:41:54.238Z,87.34
2023-04-15T11:42:54.260Z,87.43
2023-04-15T11:43:54.364Z,87.43
2023-04-15T11:44:54.177Z,87.53
2023-04-15T11:45:54.351Z,87.29
2023-04-15T11:46:54.166Z,86.69
2023-04-15T11:47:54.269Z,86.19
2023-04-15T11:48:55.135Z,86.39
2023-04-15T11:49:54.290Z,85.79
2023-04-15T11:50:54.340Z,85.99
2023-04-15T11:51:54.223Z,85.23
2023-04-15T11:52:54.259Z,85.83
2023-04-15T11:53:54.313Z,86.39
2023-04-15T11:54:54.139Z,86.89
2023-04-15T11:55:54.757Z,86.69
2023-04-15T11:56:54.363Z,86.09
2023-04-15T11:57:54.139Z,85.89
2023-04-15T11:58:54.259Z,86.49
2023-04-15T11:59:54.074Z,86.89
2023-04-15T12:00:54.196Z,86.89
2023-04-15T12:01:54.459Z,85.89
2023-04-15T12:02:54.106Z,84.99
2023-04-15T12:03:54.160Z,84.59
2023-04-15T12:04:55.336Z,84.99
2023-04-15T12:05:54.302Z,85.05
2023-04-15T12:06:54.577Z,84.85
2023-04-15T12:07:54.046Z,85.05
2023-04-15T12:08:53.935Z,84.65
2023-04-15T12:09:53.937Z,85.35
2023-04-15T12:10:54.137Z,85.05
2023-04-15T12:11:54.075Z,84.31
2023-04-15T12:12:55.202Z,83.41
2023-04-15T12:13:53.955Z,83.61
2023-04-15T12:14:53.882Z,83.41
2023-04-15T12:15:54.144Z,83.31
2023-04-15T12:16:53.938Z,82.71
2023-04-15T12:17:53.928Z,82.31
2023-04-15T12:18:53.945Z,82.01
2023-04-15T12:19:53.911Z,82.01
2023-04-15T12:20:54.019Z,82.21
2023-04-15T12:21:53.840Z,81.81
2023-04-15T12:22:53.849Z,82.21
2023-04-15T12:23:53.934Z,83.01
2023-04-15T12:24:53.840Z,83.11
2023-04-15T12:25:53.843Z,83.61
2023-04-15T12:26:53.860Z,83.51
2023-04-15T12:27:54.644Z,83.81
2023-04-15T12:28:53.762Z,84.45
2023-04-15T12:29:53.999Z,84.15
2023-04-15T12:30:53.785Z,83.75
2023-04-15T12:31:53.680Z,84.49
2023-04-15T12:32:53.677Z,85.39
2023-04-15T12:33:53.672Z,85.19
2023-04-15T12:34:53.695Z,85.09
2023-04-15T12:35:53.707Z,85.53
2023-04-15T12:36:53.604Z,85.33
2023-04-15T12:37:53.814Z,85.09
2023-04-15T12:38:53.698Z,85.49
2023-04-15T12:39:53.602Z,86.09
2023-04-15T12:40:53.640Z,86.19
2023-04-15T12:41:54.075Z,85.69
2023-04-15T12:42:53.544Z,85.89
2023-04-15T12:43:53.572Z,86.79
2023-04-15T12:44:53.561Z,86.15
2023-04-15T12:45:53.560Z,85.55
2023-04-15T12:46:53.709Z,85.05
2023-04-15T12:47:54.171Z,84.25
2023-04-15T12:48:53.486Z,84.29
2023-04-15T12:49:53.529Z,84.65
2023-04-15T12:50:53.478Z,85.25
2023-04-15T12:51:53.478Z,85.25